Terminal Aerodrome Forecast
Issued by NWS

Home | Current Version | Previous Version | Text Only | Print | Product List | Glossary On
Versions: 1 2 3 4 5 6 7 8 9 10 11 12 13
000
FTUS46 KSEW 051100
TAFPAE
TAF
KPAE 051120Z 0512/0612 18014KT P6SM VCSH SCT025 BKN050
      TEMPO 0514/0518 -SHRA BKN025 OVC050
     FM052100 28010KT P6SM VCSH SCT035 BKN050 PROB30 0521/0524 -TSRA
      BKN030CB
     FM060000 30007KT P6SM VCSH BKN030 BKN050
     FM060900 VRB03KT P6SM BKN025 BKN050=

USA.gov is the U.S. government's official web portal to all federal, state and local government web resources and services.